createdAt,value
2023-03-21T00:03:58.069Z,28.84
2023-03-21T00:09:05.091Z,28.63
2023-03-21T00:14:12.305Z,28.82
2023-03-21T00:19:19.587Z,28.41
2023-03-21T00:25:01.900Z,28.22
2023-03-21T00:30:09.275Z,28.12
2023-03-21T00:35:51.682Z,28.05
2023-03-21T00:45:39.729Z,28.04
2023-03-21T00:51:04.674Z,28.10
2023-03-21T00:56:38.572Z,28.19
2023-03-21T01:02:05.572Z,28.27
2023-03-21T01:07:53.173Z,28.35
2023-03-21T01:18:20.662Z,28.51
2023-03-21T01:23:43.758Z,28.58
2023-03-21T01:28:59.054Z,28.71
2023-03-21T01:32:37.485Z,28.44
2023-03-21T01:34:14.072Z,28.79
2023-03-21T01:39:18.165Z,28.90
2023-03-21T01:44:30.389Z,29.05
2023-03-21T01:49:37.970Z,29.01
2023-03-21T01:55:00.353Z,29.12
2023-03-21T02:00:07.776Z,29.36
2023-03-21T02:05:15.659Z,29.43
2023-03-21T02:10:23.174Z,29.53
2023-03-21T02:15:30.704Z,29.47
2023-03-21T02:20:38.420Z,29.50
2023-03-21T02:27:20.501Z,29.58
2023-03-21T02:30:59.189Z,29.77
2023-03-21T02:36:13.916Z,29.84
2023-03-21T02:41:19.083Z,29.97
2023-03-21T02:46:24.281Z,30.08
2023-03-21T02:51:28.284Z,30.11
2023-03-21T02:56:35.874Z,30.38
2023-03-21T03:01:52.265Z,30.44
2023-03-21T03:06:59.547Z,30.61
2023-03-21T03:12:06.977Z,30.81
2023-03-21T03:17:14.499Z,31.16
2023-03-21T03:22:21.679Z,31.46
2023-03-21T03:27:28.932Z,31.45
2023-03-21T03:32:36.233Z,31.47
2023-03-21T03:37:43.401Z,31.43
2023-03-21T03:42:50.558Z,31.49
2023-03-21T03:47:57.848Z,31.75
2023-03-21T03:53:16.233Z,31.93
2023-03-21T03:58:21.802Z,32.15
2023-03-21T04:03:19.646Z,32.24
2023-03-21T04:08:26.860Z,32.31
2023-03-21T04:13:34.111Z,32.41
2023-03-21T04:18:41.460Z,32.34
2023-03-21T04:23:48.748Z,32.43
2023-03-21T04:28:59.335Z,32.42
2023-03-21T04:34:07.083Z,32.47
2023-03-21T04:39:14.484Z,32.48
2023-03-21T04:44:25.424Z,32.58
2023-03-21T04:49:32.982Z,32.68
2023-03-21T04:54:40.443Z,32.74
2023-03-21T04:59:52.695Z,32.76
2023-03-21T05:05:00.176Z,32.80
2023-03-21T05:10:07.944Z,32.86
2023-03-21T05:15:24.426Z,32.79
2023-03-21T05:20:31.926Z,32.85
2023-03-21T05:25:39.841Z,32.88
2023-03-21T05:30:46.985Z,32.89
2023-03-21T05:35:58.312Z,32.97
2023-03-21T05:41:05.866Z,33.00
2023-03-21T05:46:13.403Z,33.03
2023-03-21T05:51:21.006Z,32.90
2023-03-21T05:56:28.372Z,32.69
2023-03-21T06:01:35.766Z,32.56
2023-03-21T06:06:43.290Z,32.41
2023-03-21T06:11:50.618Z,32.31
2023-03-21T06:16:58.029Z,32.04
2023-03-21T06:22:05.853Z,31.96
2023-03-21T06:27:13.256Z,32.03
2023-03-21T06:32:20.659Z,31.92
2023-03-21T06:37:38.438Z,32.09
2023-03-21T06:42:45.865Z,31.96
2023-03-21T06:47:53.265Z,31.90
2023-03-21T06:53:00.859Z,32.07
2023-03-21T06:58:08.344Z,32.11
2023-03-21T07:03:15.928Z,32.88
2023-03-21T07:08:23.401Z,32.49
2023-03-21T07:13:30.866Z,32.50
2023-03-21T07:18:38.582Z,32.44
2023-03-21T07:23:46.145Z,32.48
2023-03-21T07:28:53.594Z,32.54
2023-03-21T07:34:01.090Z,33.51
2023-03-21T07:39:08.587Z,33.19
2023-03-21T07:44:16.034Z,33.29
2023-03-21T07:49:23.356Z,33.14
2023-03-21T07:54:31.457Z,32.82
2023-03-21T07:59:38.852Z,32.97
2023-03-21T08:05:03.693Z,33.13
2023-03-21T08:09:58.972Z,33.09
2023-03-21T08:15:06.306Z,32.82
2023-03-21T08:20:13.712Z,32.60
2023-03-21T08:25:21.234Z,32.69
2023-03-21T08:30:28.956Z,32.21
2023-03-21T08:35:40.377Z,32.30
2023-03-21T08:40:44.469Z,32.26
2023-03-21T08:45:51.672Z,32.41
2023-03-21T08:50:59.115Z,32.46
2023-03-21T08:56:06.403Z,32.06
2023-03-21T09:01:13.670Z,32.07
2023-03-21T09:06:20.960Z,32.11
2023-03-21T09:11:28.303Z,32.29
2023-03-21T09:16:35.712Z,32.25
2023-03-21T09:21:43.046Z,32.50
2023-03-21T09:26:50.511Z,32.41
2023-03-21T09:31:57.759Z,32.32
2023-03-21T09:37:04.974Z,32.16
2023-03-21T09:42:15.083Z,31.93
2023-03-21T09:47:19.506Z,31.94
2023-03-21T09:52:26.775Z,31.97
2023-03-21T09:57:34.033Z,31.83
2023-03-21T10:02:41.207Z,31.92
2023-03-21T10:07:48.468Z,31.82
2023-03-21T10:12:55.894Z,31.85
2023-03-21T10:18:03.135Z,31.85
2023-03-21T10:23:10.591Z,31.82
2023-03-21T10:28:17.672Z,31.87
2023-03-21T10:33:24.873Z,31.81
2023-03-21T10:38:32.239Z,31.82
2023-03-21T10:43:39.576Z,31.84
2023-03-21T10:48:47.361Z,31.77
2023-03-21T10:53:54.228Z,31.65
2023-03-21T10:59:01.512Z,32.02
2023-03-21T11:04:08.689Z,31.72
2023-03-21T11:09:15.933Z,32.95
2023-03-21T11:14:23.407Z,32.19
2023-03-21T11:19:30.670Z,32.00
2023-03-21T11:24:37.978Z,32.58
2023-03-21T11:29:45.312Z,32.79
2023-03-21T11:34:52.747Z,33.26
2023-03-21T11:40:00.188Z,33.22
2023-03-21T11:45:07.513Z,33.86
2023-03-21T11:50:14.886Z,34.95
2023-03-21T11:55:22.196Z,34.98
2023-03-21T12:00:30.611Z,34.37
2023-03-21T12:05:39.514Z,35.15
2023-03-21T12:10:51.308Z,35.29
2023-03-21T12:15:59.077Z,35.24
2023-03-21T12:21:11.086Z,35.00
2023-03-21T12:26:18.501Z,35.42
2023-03-21T12:31:25.997Z,34.42
2023-03-21T12:36:33.143Z,34.62
2023-03-21T12:41:40.506Z,34.67
2023-03-21T12:46:48.062Z,34.48
2023-03-21T12:51:55.223Z,34.77
2023-03-21T12:57:02.706Z,34.53
2023-03-21T13:02:10.305Z,34.90
2023-03-21T13:07:17.646Z,35.29
2023-03-21T13:12:25.263Z,35.57
2023-03-21T13:17:45.672Z,35.25
2023-03-21T13:22:53.093Z,35.12
2023-03-21T13:28:10.099Z,35.32
2023-03-21T13:33:17.682Z,35.10
2023-03-21T13:38:25.214Z,35.21
2023-03-21T13:43:32.954Z,35.46
2023-03-21T13:49:00.013Z,35.80
2023-03-21T13:54:02.837Z,35.19
2023-03-21T13:59:10.286Z,35.07
2023-03-21T14:04:17.781Z,35.25
2023-03-21T14:09:25.237Z,35.54
2023-03-21T14:14:32.563Z,34.90
2023-03-21T14:19:40.190Z,35.62
2023-03-21T14:24:50.805Z,35.31
2023-03-21T14:29:58.118Z,35.65
2023-03-21T14:35:05.663Z,35.42
2023-03-21T14:40:12.828Z,35.34
2023-03-21T14:45:23.696Z,35.62
2023-03-21T14:50:33.242Z,35.34
2023-03-21T14:55:39.818Z,35.17
2023-03-21T15:00:46.978Z,36.67
2023-03-21T15:05:59.314Z,35.84
2023-03-21T15:11:07.709Z,36.59
2023-03-21T15:16:14.201Z,37.02
2023-03-21T15:21:21.645Z,36.39
2023-03-21T15:26:29.061Z,35.99
2023-03-21T15:31:41.421Z,36.00
2023-03-21T15:36:48.931Z,35.71
2023-03-21T15:41:56.155Z,35.42
2023-03-21T15:47:03.464Z,35.36
2023-03-21T15:52:11.003Z,35.62
2023-03-21T15:57:18.319Z,35.45
2023-03-21T16:02:25.672Z,35.01
2023-03-21T16:07:33.125Z,34.85
2023-03-21T16:12:40.308Z,34.59
2023-03-21T16:17:47.676Z,34.78
2023-03-21T16:22:55.079Z,34.52
2023-03-21T16:28:02.328Z,34.49
2023-03-21T16:33:09.609Z,34.45
2023-03-21T16:38:16.921Z,34.39
2023-03-21T16:43:24.178Z,34.38
2023-03-21T16:48:32.187Z,34.33
2023-03-21T16:53:39.361Z,34.30
2023-03-21T16:58:46.622Z,34.31
2023-03-21T17:03:53.957Z,34.59
2023-03-21T17:09:01.232Z,34.70
2023-03-21T17:14:08.408Z,34.58
2023-03-21T17:19:15.645Z,34.65
2023-03-21T17:24:23.007Z,34.66
2023-03-21T17:29:30.378Z,34.74
2023-03-21T17:34:37.851Z,35.01
2023-03-21T17:39:45.329Z,35.07
2023-03-21T17:44:52.748Z,35.13
2023-03-21T17:50:00.271Z,34.95
2023-03-21T17:55:08.052Z,34.36
2023-03-21T18:00:15.263Z,34.58
2023-03-21T18:05:22.810Z,34.55
2023-03-21T18:10:30.863Z,34.18
2023-03-21T18:15:38.584Z,33.93
2023-03-21T18:20:52.136Z,33.75
2023-03-21T18:25:53.498Z,33.54
2023-03-21T18:31:10.382Z,33.34
2023-03-21T18:36:08.293Z,33.29
2023-03-21T18:41:15.838Z,33.22
2023-03-21T18:46:23.512Z,33.06
2023-03-21T18:51:31.544Z,32.92
2023-03-21T19:01:46.744Z,32.70
2023-03-21T19:06:54.188Z,32.62
2023-03-21T19:12:01.975Z,32.61
2023-03-21T19:18:03.020Z,32.62
2023-03-21T19:22:18.161Z,32.63
2023-03-21T19:27:26.050Z,32.50
2023-03-21T19:32:33.889Z,32.52
2023-03-21T19:37:41.610Z,32.27
2023-03-21T19:42:49.261Z,32.39
2023-03-21T19:47:57.019Z,32.29
2023-03-21T19:53:04.655Z,32.19
2023-03-21T19:58:12.400Z,32.10
2023-03-21T20:03:20.181Z,32.04
2023-03-21T20:08:27.711Z,31.92
2023-03-21T20:13:35.449Z,31.98
2023-03-21T20:18:43.037Z,31.74
2023-03-21T20:23:50.458Z,31.69
2023-03-21T20:29:28.050Z,31.60
2023-03-21T20:34:05.722Z,31.58
2023-03-21T20:39:13.386Z,31.90
2023-03-21T20:44:48.118Z,31.10
2023-03-21T20:49:28.829Z,31.27
2023-03-21T20:54:36.167Z,31.26
2023-03-21T20:59:43.677Z,30.88
2023-03-21T21:05:21.494Z,30.56
2023-03-21T21:09:59.157Z,30.46
2023-03-21T21:15:06.666Z,30.26
2023-03-21T21:20:13.902Z,29.97
2023-03-21T21:25:21.118Z,30.21
2023-03-21T21:30:28.427Z,29.74
2023-03-21T21:35:35.718Z,29.83
2023-03-21T21:40:42.861Z,29.61
2023-03-21T21:45:50.087Z,29.58
2023-03-21T21:50:57.343Z,29.47
2023-03-21T21:56:04.645Z,29.34
2023-03-21T22:01:11.991Z,29.27
2023-03-21T22:06:19.076Z,29.20
2023-03-21T22:11:26.368Z,29.19
2023-03-21T22:16:33.785Z,29.08
2023-03-21T22:21:40.817Z,28.99
2023-03-21T22:26:48.224Z,28.96
2023-03-21T22:31:55.349Z,28.73
2023-03-21T22:37:02.557Z,28.55
2023-03-21T22:42:09.883Z,28.47
2023-03-21T22:47:17.083Z,28.49
2023-03-21T22:52:24.312Z,28.36
2023-03-21T22:57:31.531Z,28.29
2023-03-21T23:02:38.937Z,28.20
2023-03-21T23:07:55.431Z,27.99
2023-03-21T23:12:59.495Z,28.04
2023-03-21T23:18:09.094Z,28.01
2023-03-21T23:23:14.955Z,28.06
2023-03-21T23:28:22.273Z,27.96
2023-03-21T23:33:29.589Z,27.95
2023-03-21T23:38:36.841Z,27.84
2023-03-21T23:43:44.170Z,28.26
2023-03-21T23:49:12.993Z,28.12
2023-03-21T23:54:25.513Z,28.28
2023-03-21T23:59:17.107Z,28.41
